createdAt,value
2022-12-14T00:04:48.621Z,73.06
2022-12-14T00:11:11.657Z,73.64
2022-12-14T00:17:31.648Z,73.53
2022-12-14T00:23:54.640Z,73.31
2022-12-14T00:30:14.648Z,74.19
2022-12-14T00:36:37.763Z,73.62
2022-12-14T00:42:57.551Z,73.83
2022-12-14T00:49:20.623Z,73.89
2022-12-14T00:55:40.668Z,74.15
2022-12-14T01:02:03.703Z,73.64
2022-12-14T01:08:23.649Z,74.01
2022-12-14T01:14:46.605Z,74.09
2022-12-14T01:21:06.599Z,74.17
2022-12-14T01:27:29.743Z,73.94
2022-12-14T01:33:49.622Z,74.21
2022-12-14T01:40:12.585Z,73.98
2022-12-14T01:46:32.629Z,73.84
2022-12-14T01:52:55.775Z,73.12
2022-12-14T01:59:15.641Z,72.69
2022-12-14T02:05:38.579Z,72.55
2022-12-14T02:11:58.573Z,72.65
2022-12-14T02:18:21.728Z,72.22
2022-12-14T02:24:41.583Z,72.19
2022-12-14T02:31:04.764Z,72.19
2022-12-14T02:37:24.552Z,72.34
2022-12-14T02:43:47.624Z,72.43
2022-12-14T02:50:07.585Z,72.66
2022-12-14T02:56:30.582Z,72.58
2022-12-14T03:02:50.572Z,72.86
2022-12-14T03:09:13.669Z,72.77
2022-12-14T03:15:35.578Z,72.91
2022-12-14T03:21:58.578Z,73
2022-12-14T03:28:18.571Z,72.87
2022-12-14T03:34:41.576Z,73.17
2022-12-14T03:41:01.566Z,73.02
2022-12-14T03:47:24.584Z,72.54
2022-12-14T03:53:44.604Z,73.2
2022-12-14T04:00:07.612Z,72.55
2022-12-14T04:22:34.607Z,73.25
2022-12-14T04:28:57.579Z,73.38
2022-12-14T04:35:17.619Z,73.5
2022-12-14T04:41:40.683Z,73.29
2022-12-14T04:48:00.577Z,72.61
2022-12-14T04:54:23.666Z,72.71
2022-12-14T05:00:43.814Z,72.29
2022-12-14T05:07:06.595Z,72.46
2022-12-14T05:13:26.938Z,72.44
2022-12-14T05:19:49.693Z,72.2
2022-12-14T05:26:09.582Z,72.49
2022-12-14T05:32:32.559Z,71.85
2022-12-14T05:38:52.600Z,72.57
2022-12-14T05:45:15.579Z,72.26
2022-12-14T05:51:35.585Z,72.01
2022-12-14T05:57:58.583Z,71.76
2022-12-14T06:04:18.813Z,72.03
2022-12-14T06:10:41.577Z,72.14
2022-12-14T06:17:01.688Z,72.31
2022-12-14T06:23:24.811Z,73.07
2022-12-14T06:29:44.647Z,71.8
2022-12-14T06:36:07.645Z,72.28
2022-12-14T06:42:27.558Z,71.57
2022-12-14T06:48:50.612Z,71.56
2022-12-14T06:55:10.706Z,71.85
2022-12-14T07:01:33.686Z,71.44
2022-12-14T07:07:53.566Z,71.92
2022-12-14T07:14:16.658Z,71.6
2022-12-14T07:20:36.576Z,71.58
2022-12-14T07:26:59.680Z,71.27
2022-12-14T07:33:19.700Z,71.35
2022-12-14T07:39:42.566Z,71.28
2022-12-14T07:46:02.660Z,71.45
2022-12-14T07:52:25.749Z,71.56
2022-12-14T07:58:45.650Z,70.76
2022-12-14T08:05:12.399Z,70.57
2022-12-14T08:11:28.597Z,70.69
2022-12-14T08:17:51.561Z,71.17
2022-12-14T08:24:11.577Z,70.97
2022-12-14T08:30:34.620Z,70.75
2022-12-14T08:36:54.699Z,71.38
2022-12-14T08:43:21.701Z,71.29
2022-12-14T08:49:37.734Z,71.82
2022-12-14T08:56:00.586Z,72.97
2022-12-14T09:12:25.511Z,75.74
2022-12-14T09:18:45.600Z,76.54
2022-12-14T09:25:08.691Z,77.61
2022-12-14T09:31:28.792Z,78.92
2022-12-14T09:37:51.602Z,79.91
2022-12-14T09:44:16.289Z,80.63
2022-12-14T09:50:34.674Z,80.89
2022-12-14T09:56:54.641Z,81.27
2022-12-14T10:03:17.776Z,81.62
2022-12-14T10:09:37.558Z,82.14
2022-12-14T10:16:00.665Z,82.97
2022-12-14T10:22:20.565Z,83.43
2022-12-14T10:28:43.627Z,84.28
2022-12-14T10:35:03.689Z,84.27
2022-12-14T10:41:26.570Z,83.79
2022-12-14T10:47:46.681Z,84.11
2022-12-14T10:54:09.638Z,84.19
2022-12-14T11:00:29.842Z,84.02
2022-12-14T11:06:52.695Z,83.96
2022-12-14T11:13:12.564Z,83.65
2022-12-14T11:19:35.602Z,84.03
2022-12-14T11:25:55.560Z,84.34
2022-12-14T11:32:18.642Z,84.08
2022-12-14T11:38:38.591Z,84.39
2022-12-14T11:45:01.625Z,84.25
2022-12-14T11:51:21.630Z,83.75
2022-12-14T11:57:44.575Z,83.79
2022-12-14T12:04:04.703Z,83.38
2022-12-14T12:10:27.563Z,83.18
2022-12-14T12:16:47.668Z,83.74
2022-12-14T12:23:10.604Z,83.5
2022-12-14T12:29:30.807Z,82.97
2022-12-14T12:35:53.635Z,82.96
2022-12-14T12:42:13.713Z,82.48
2022-12-14T12:48:36.582Z,82.21
2022-12-14T12:54:56.629Z,82.43
2022-12-14T13:01:19.830Z,82.9
2022-12-14T13:07:39.587Z,82.68
2022-12-14T13:14:02.564Z,82.5
2022-12-14T13:20:22.667Z,82.62
2022-12-14T13:26:59.761Z,82.62
2022-12-14T13:33:05.646Z,82.64
2022-12-14T13:39:28.573Z,83.02
2022-12-14T13:45:49.540Z,81.79
2022-12-14T13:52:11.559Z,81.74
2022-12-14T13:58:32.037Z,81.61
2022-12-14T14:04:54.616Z,81.22
2022-12-14T14:11:38.066Z,81.3
2022-12-14T14:17:37.637Z,81.84
2022-12-14T14:35:26.544Z,81.79
2022-12-14T14:41:49.573Z,82.43
2022-12-14T14:48:09.561Z,82.21
2022-12-14T15:00:52.577Z,81.83
2022-12-14T15:07:15.580Z,81.26
2022-12-14T15:13:35.841Z,82.63
2022-12-14T15:19:58.617Z,82.81
2022-12-14T15:26:18.558Z,83.1
2022-12-14T15:32:45.884Z,83.39
2022-12-14T15:39:02.556Z,82.74
2022-12-14T15:45:25.748Z,83.16
2022-12-14T15:51:45.750Z,82.84
2022-12-14T15:58:08.593Z,83.06
2022-12-14T16:04:28.619Z,83
2022-12-14T16:10:51.910Z,82.6
2022-12-14T16:17:11.666Z,82.54
2022-12-14T16:23:36.925Z,82.04
2022-12-14T16:29:54.745Z,82.31
2022-12-14T16:36:17.578Z,82.78
2022-12-14T16:42:37.687Z,82.88
2022-12-14T16:49:00.628Z,83.61
2022-12-14T16:55:20.614Z,83.94
2022-12-14T17:01:43.998Z,83.48
2022-12-14T17:08:03.666Z,83.51
2022-12-14T17:14:26.552Z,82.77
2022-12-14T17:20:46.690Z,82.38
2022-12-14T17:27:09.761Z,82.43
2022-12-14T17:33:30.004Z,82.55
2022-12-14T17:39:52.680Z,83.1
2022-12-14T17:46:12.839Z,82.67
2022-12-14T17:52:35.574Z,82.57
2022-12-14T17:58:55.900Z,82.42
2022-12-14T18:05:18.618Z,82.85
2022-12-14T18:11:49.278Z,83.48
2022-12-14T18:18:01.711Z,83.3
2022-12-14T18:24:25.824Z,83.19
2022-12-14T18:30:49.349Z,82.81
2022-12-14T18:37:04.710Z,82.68
2022-12-14T18:43:28.526Z,82.44
2022-12-14T18:49:47.599Z,82.59
2022-12-14T18:56:10.712Z,82.12
2022-12-14T19:02:30.862Z,82.62
2022-12-14T19:08:53.755Z,82.72
2022-12-14T19:32:17.097Z,82.69
2022-12-14T19:38:36.553Z,82.51
2022-12-14T19:44:59.623Z,82.09
2022-12-14T19:51:19.601Z,81.61
2022-12-14T19:57:42.563Z,81.37
2022-12-14T20:04:02.634Z,81.48
2022-12-14T20:10:25.624Z,81.15
2022-12-14T20:16:45.698Z,81.05
2022-12-14T20:23:08.546Z,80.69
2022-12-14T20:29:28.582Z,80.64
2022-12-14T20:35:51.603Z,80.93
2022-12-14T20:42:11.624Z,81.28
2022-12-14T20:48:34.666Z,81.5
2022-12-14T20:54:54.652Z,81.23
2022-12-14T21:01:17.663Z,81.38
2022-12-14T21:07:37.583Z,81.51
2022-12-14T21:14:00.624Z,81.44
2022-12-14T21:20:20.613Z,81.1
2022-12-14T21:26:43.686Z,81.05
2022-12-14T21:33:03.654Z,81.04
2022-12-14T21:39:26.577Z,81.19
2022-12-14T21:45:46.672Z,80.96
2022-12-14T21:52:09.616Z,80.59
2022-12-14T21:58:29.554Z,80.85
2022-12-14T22:04:52.665Z,80.66
2022-12-14T22:11:12.562Z,80.62
2022-12-14T22:17:35.588Z,80.54
2022-12-14T22:23:55.713Z,81.3
2022-12-14T22:30:18.613Z,80.96
2022-12-14T22:36:38.564Z,81.54
2022-12-14T22:43:01.604Z,81.17
2022-12-14T22:49:21.557Z,80.79
2022-12-14T22:55:44.632Z,80.52
2022-12-14T23:18:50.585Z,80.97
2022-12-14T23:25:10.601Z,81.06
2022-12-14T23:31:33.592Z,80.68
2022-12-14T23:37:53.793Z,80.25
2022-12-14T23:44:16.682Z,81.05
2022-12-14T23:50:36.744Z,80.58
2022-12-14T23:57:03.004Z,79.58
